createdAt,value
2023-01-12T03:30:41.315Z,4.30
2023-01-12T03:33:12.647Z,4.20
2023-01-12T03:35:49.253Z,4.30
2023-01-12T03:38:24.295Z,4.30
2023-01-12T03:41:00.621Z,4.20
2023-01-12T03:43:33.688Z,4.40
2023-01-12T03:46:08.508Z,4.30
2023-01-12T03:48:43.909Z,4.20
2023-01-12T03:51:16.651Z,4.30
2023-01-12T03:53:47.867Z,4.30
2023-01-12T03:56:19.279Z,4.20
2023-01-12T03:58:48.702Z,4.30
2023-01-12T04:01:17.339Z,4.30
2023-01-12T04:03:48.137Z,4.10
2023-01-12T04:06:16.418Z,4.30
2023-01-12T04:08:44.611Z,4.00
2023-01-12T04:11:30.149Z,4.20
2023-01-12T04:13:58.464Z,4.20
2023-01-12T04:16:27.056Z,4.20
2023-01-12T04:18:56.787Z,4.20
2023-01-12T04:21:42.831Z,4.30
2023-01-12T04:24:11.030Z,4.20
2023-01-12T04:26:39.222Z,4.20
2023-01-12T04:29:07.539Z,4.10
2023-01-12T04:31:35.780Z,4.20
2023-01-12T04:34:05.605Z,4.20
2023-01-12T04:36:33.750Z,4.30
2023-01-12T04:39:02.151Z,4.20
2023-01-12T04:41:31.085Z,4.10
2023-01-12T04:43:59.292Z,4.20
2023-01-12T04:46:27.530Z,4.10
2023-01-12T04:48:55.677Z,4.20
2023-01-12T04:51:25.468Z,4.30
2023-01-12T04:53:53.743Z,4.20
2023-01-12T04:56:21.985Z,4.30
2023-01-12T04:58:50.108Z,4.20
2023-01-12T05:01:21.100Z,4.30
2023-01-12T05:03:49.949Z,4.10
2023-01-12T05:06:18.986Z,4.20
2023-01-12T05:09:06.061Z,4.20
2023-01-12T05:11:35.010Z,4.30
2023-01-12T05:14:03.966Z,4.50
2023-01-12T05:16:32.477Z,4.30
2023-01-12T05:19:00.940Z,4.40
2023-01-12T05:21:29.450Z,4.40
2023-01-12T05:24:00.783Z,4.20
2023-01-12T05:26:31.435Z,4.50
2023-01-12T05:28:59.930Z,4.40
2023-01-12T05:31:28.456Z,4.60
2023-01-12T05:33:57.443Z,4.50
2023-01-12T05:39:15.383Z,4.70
2023-01-12T05:42:04.241Z,4.60
2023-01-12T05:44:31.343Z,4.70
2023-01-12T05:47:03.040Z,4.50
2023-01-12T05:49:33.128Z,4.00
2023-01-12T05:52:03.798Z,4.60
2023-01-12T05:54:34.489Z,4.60
2023-01-12T05:57:04.120Z,4.40
2023-01-12T05:59:32.107Z,4.50
2023-01-12T06:02:00.219Z,4.50
2023-01-12T06:04:28.441Z,4.50
2023-01-12T06:06:56.617Z,4.50
2023-01-12T06:09:24.766Z,4.60
2023-01-12T06:12:14.775Z,4.60
2023-01-12T06:14:42.737Z,4.70
2023-01-12T06:17:10.724Z,4.30
2023-01-12T06:19:38.990Z,4.50
2023-01-12T06:22:08.652Z,6.60
2023-01-12T06:24:37.121Z,4.70
2023-01-12T06:27:06.707Z,4.80
2023-01-12T06:29:34.863Z,4.80
2023-01-12T06:32:02.890Z,4.70
2023-01-12T06:34:34.954Z,4.20
2023-01-12T06:37:04.637Z,4.80
2023-01-12T06:39:40.922Z,4.80
2023-01-12T06:42:30.303Z,4.80
2023-01-12T06:45:18.928Z,4.90
2023-01-12T06:47:48.718Z,4.90
2023-01-12T06:50:17.620Z,4.90
2023-01-12T06:52:45.656Z,4.90
2023-01-12T06:55:13.775Z,5.00
2023-01-12T06:57:44.081Z,5.00
2023-01-12T07:00:13.987Z,5.00
2023-01-12T07:02:42.189Z,4.80
2023-01-12T07:05:10.804Z,5.00
2023-01-12T07:07:40.400Z,5.10
2023-01-12T07:10:09.486Z,5.10
2023-01-12T07:12:37.740Z,5.20
2023-01-12T07:15:08.872Z,5.10
2023-01-12T07:17:36.995Z,2.80
2023-01-12T07:20:05.679Z,5.30
2023-01-12T07:22:37.268Z,6.20
2023-01-12T07:25:06.365Z,5.30
2023-01-12T07:27:35.451Z,5.40
2023-01-12T07:30:04.471Z,4.20
2023-01-12T07:32:37.586Z,5.60
2023-01-12T07:35:06.713Z,5.50
2023-01-12T07:37:35.486Z,5.50
2023-01-12T07:40:03.922Z,5.50
2023-01-12T07:42:33.641Z,5.50
2023-01-12T07:45:02.033Z,5.90
2023-01-12T07:47:30.175Z,5.50
2023-01-12T07:50:00.188Z,5.40
2023-01-12T07:52:28.725Z,5.50
2023-01-12T07:54:58.863Z,5.60
2023-01-12T07:57:27.578Z,5.60
2023-01-12T07:59:57.861Z,5.60
2023-01-12T08:02:26.499Z,5.70
2023-01-12T08:04:55.124Z,5.60
2023-01-12T08:07:26.997Z,5.50
2023-01-12T08:09:55.974Z,5.60
2023-01-12T08:12:24.366Z,5.70
2023-01-12T08:14:52.451Z,5.40
2023-01-12T08:17:24.015Z,5.80
2023-01-12T08:22:31.251Z,5.50
2023-01-12T08:25:05.128Z,6.10
2023-01-12T08:27:39.756Z,6.00
2023-01-12T08:30:11.646Z,6.20
2023-01-12T08:32:41.198Z,6.30
2023-01-12T08:35:17.709Z,6.30
2023-01-12T08:37:47.262Z,5.40
2023-01-12T08:40:16.272Z,6.50
2023-01-12T08:42:45.118Z,8.30
2023-01-12T08:45:13.415Z,6.40
2023-01-12T08:47:45.352Z,6.60
2023-01-12T08:50:14.891Z,7.10
2023-01-12T08:52:44.793Z,6.90
2023-01-12T08:55:16.567Z,6.80
2023-01-12T08:57:44.774Z,6.90
2023-01-12T09:00:16.041Z,7.10
2023-01-12T09:02:50.889Z,7.40
2023-01-12T09:05:19.827Z,7.20
2023-01-12T09:07:48.467Z,7.20
2023-01-12T09:10:22.736Z,7.00
2023-01-12T09:12:52.017Z,7.10
2023-01-12T09:15:20.476Z,7.10
2023-01-12T09:17:58.662Z,7.20
2023-01-12T09:20:29.726Z,7.30
2023-01-12T09:22:57.902Z,7.00
2023-01-12T09:25:28.831Z,7.20
2023-01-12T09:28:01.876Z,7.40
2023-01-12T09:30:31.982Z,7.70
2023-01-12T09:33:00.897Z,7.40
2023-01-12T09:35:32.220Z,7.50
2023-01-12T09:38:00.282Z,7.50
2023-01-12T09:40:30.993Z,7.60
2023-01-12T09:43:15.508Z,7.60
2023-01-12T09:46:02.349Z,7.60
2023-01-12T09:48:31.775Z,7.70
2023-01-12T09:51:10.762Z,7.70
2023-01-12T09:53:41.717Z,7.60
2023-01-12T09:56:20.582Z,7.70
2023-01-12T09:59:22.763Z,7.90
2023-01-12T10:01:57.087Z,7.60
2023-01-12T10:04:26.527Z,7.90
2023-01-12T10:06:56.435Z,7.90
2023-01-12T10:09:29.535Z,8.00
2023-01-12T10:12:09.229Z,8.10
2023-01-12T10:15:10.175Z,8.10
2023-01-12T10:17:51.771Z,8.00
2023-01-12T10:20:28.273Z,8.20
2023-01-12T10:23:10.223Z,8.10
2023-01-12T10:25:41.662Z,8.10
2023-01-12T10:28:19.777Z,8.20
2023-01-12T10:30:48.962Z,8.10
2023-01-12T10:33:20.228Z,8.40
2023-01-12T10:35:59.075Z,8.20
2023-01-12T10:41:20.465Z,8.30
2023-01-12T10:44:15.199Z,8.30
2023-01-12T10:46:44.297Z,8.40
2023-01-12T10:51:58.053Z,8.40
2023-01-12T10:55:39.406Z,8.30
2023-01-12T13:20:53.812Z,9.40
2023-01-12T13:23:52.545Z,8.90
2023-01-12T13:26:52.534Z,9.00
2023-01-12T13:29:45.827Z,9.00
2023-01-12T13:32:38.004Z,8.90
2023-01-12T13:35:40.621Z,9.00
2023-01-12T13:38:22.023Z,8.90
2023-01-12T13:40:55.988Z,8.90
2023-01-12T13:43:29.196Z,8.90
2023-01-12T13:46:02.317Z,8.80
2023-01-12T13:48:33.668Z,8.80
2023-01-12T13:51:07.776Z,8.80
2023-01-12T13:53:38.217Z,8.80
2023-01-12T13:56:08.559Z,8.60
2023-01-12T13:58:41.289Z,8.80
2023-01-12T14:01:19.642Z,8.70
2023-01-12T14:04:20.034Z,8.60
2023-01-12T14:07:01.709Z,8.50
2023-01-12T14:09:43.091Z,8.60
2023-01-12T14:12:28.841Z,8.60
2023-01-12T14:15:45.397Z,8.60
2023-01-12T14:18:17.576Z,9.10
2023-01-12T14:20:48.140Z,8.60
2023-01-12T14:23:19.242Z,8.60
2023-01-12T14:26:04.627Z,8.70
2023-01-12T14:28:33.447Z,8.70
2023-01-12T14:31:02.601Z,8.70
2023-01-12T14:33:33.437Z,8.70
2023-01-12T14:36:05.616Z,8.60
2023-01-12T14:38:36.201Z,8.60
2023-01-12T14:41:27.970Z,8.30
2023-01-12T14:44:14.342Z,8.50
2023-01-12T14:46:51.355Z,8.50
2023-01-12T14:49:22.104Z,8.40
2023-01-12T14:51:56.592Z,8.00
2023-01-12T14:54:30.335Z,8.30
2023-01-12T14:57:02.066Z,8.40
2023-01-12T14:59:32.298Z,8.40
2023-01-12T15:02:26.801Z,8.40
2023-01-12T15:04:58.701Z,8.30
2023-01-12T15:07:31.299Z,8.30
2023-01-12T15:10:01.278Z,8.40
2023-01-12T15:12:47.899Z,8.20
2023-01-12T15:15:19.007Z,9.50
2023-01-12T15:18:04.678Z,8.30
2023-01-12T15:20:54.264Z,8.30
2023-01-12T15:23:46.752Z,8.20
2023-01-12T15:26:14.985Z,8.20
2023-01-12T15:31:34.528Z,8.10
2023-01-12T15:34:04.566Z,8.10
2023-01-12T15:36:33.962Z,8.10
2023-01-12T15:39:02.578Z,7.70
2023-01-12T15:44:35.274Z,8.10
2023-01-12T15:47:04.633Z,8.10
2023-01-12T15:49:34.072Z,8.10
2023-01-12T15:54:45.184Z,8.20
2023-01-12T15:57:15.073Z,7.60
2023-01-12T15:59:47.368Z,8.10
2023-01-12T16:02:28.089Z,8.10
2023-01-12T16:04:56.226Z,8.10
2023-01-12T16:07:24.760Z,8.10
2023-01-12T16:09:54.668Z,8.10
2023-01-12T16:12:23.360Z,8.00
2023-01-12T16:14:52.990Z,8.10
2023-01-12T16:17:21.152Z,8.10
2023-01-12T16:19:49.537Z,8.50
2023-01-12T16:22:32.520Z,8.00
2023-01-12T16:25:02.273Z,8.10
2023-01-12T16:27:44.991Z,7.80
2023-01-12T16:36:12.389Z,8.10
2023-01-12T16:38:53.026Z,7.90
2023-01-12T16:50:23.166Z,8.00
2023-01-12T16:58:53.521Z,8.00
2023-01-12T17:01:24.865Z,8.00
2023-01-12T17:03:58.428Z,7.90
2023-01-12T17:06:28.719Z,7.80
2023-01-12T17:08:58.223Z,8.00
2023-01-12T17:11:28.342Z,8.00
2023-01-12T17:13:58.414Z,8.00
2023-01-12T17:16:51.092Z,7.90
2023-01-12T17:19:23.303Z,8.40
2023-01-12T17:27:13.211Z,7.90
2023-01-12T17:29:42.312Z,7.70
2023-01-12T17:32:10.765Z,7.40
2023-01-12T17:37:55.661Z,7.90
2023-01-12T17:49:06.758Z,7.60
2023-01-12T17:51:38.351Z,8.00
2023-01-12T17:58:17.134Z,7.80
2023-01-12T18:01:03.140Z,7.70
2023-01-12T18:03:34.548Z,7.70
2023-01-12T18:09:06.398Z,7.80
2023-01-12T18:33:13.207Z,7.80
2023-01-12T18:38:46.802Z,7.70
2023-01-12T18:44:02.417Z,7.80
2023-01-12T18:46:46.482Z,7.80
2023-01-12T18:49:15.579Z,7.70
2023-01-12T18:54:27.472Z,7.80
2023-01-12T18:57:09.847Z,7.70
2023-01-12T19:09:39.117Z,7.70
2023-01-12T19:12:09.530Z,7.70
2023-01-12T19:14:59.964Z,7.70
2023-01-12T19:17:33.463Z,7.70
2023-01-12T19:20:12.093Z,7.70
2023-01-12T19:23:04.778Z,7.70
2023-01-12T19:25:58.972Z,7.60
2023-01-12T19:28:40.899Z,7.60
2023-01-12T19:31:15.835Z,7.70
2023-01-12T19:33:48.362Z,7.70
2023-01-12T19:36:17.090Z,8.40
2023-01-12T19:38:52.942Z,7.60
2023-01-12T19:41:35.699Z,8.60
2023-01-12T19:44:05.953Z,7.60
2023-01-12T19:46:39.920Z,7.60
2023-01-12T19:49:12.067Z,7.60
2023-01-12T19:51:48.753Z,7.60
2023-01-12T19:54:32.443Z,7.60
2023-01-12T19:59:37.124Z,7.60
2023-01-12T20:02:06.060Z,7.50
2023-01-12T20:04:38.194Z,8.30
2023-01-12T20:07:08.061Z,7.60
2023-01-12T20:09:38.306Z,7.50
2023-01-12T20:12:07.821Z,7.40
2023-01-12T20:14:36.108Z,7.50
2023-01-12T20:17:05.616Z,7.40
2023-01-12T20:19:37.072Z,7.40
2023-01-12T20:22:05.655Z,7.40
2023-01-12T20:24:33.897Z,6.50
2023-01-12T20:27:04.310Z,7.40
2023-01-12T20:29:33.317Z,6.50
2023-01-12T20:32:03.113Z,7.30
2023-01-12T20:34:53.582Z,6.80
2023-01-12T20:39:53.388Z,7.20
2023-01-12T20:42:24.799Z,7.20
2023-01-12T20:44:53.377Z,8.50
2023-01-12T20:47:24.855Z,7.30
2023-01-12T20:49:53.523Z,7.10
2023-01-12T20:52:22.352Z,6.70
2023-01-12T20:54:51.045Z,7.20
2023-01-12T20:57:21.464Z,7.20
2023-01-12T20:59:51.752Z,7.00
2023-01-12T21:02:29.185Z,7.10
2023-01-12T21:04:59.101Z,7.40
2023-01-12T21:07:27.277Z,7.00
2023-01-12T21:09:56.268Z,7.00
2023-01-12T21:12:27.637Z,6.80
2023-01-12T21:14:57.785Z,7.00
2023-01-12T21:17:26.649Z,9.10
2023-01-12T21:19:55.898Z,6.90
2023-01-12T21:22:25.310Z,6.80
2023-01-12T21:24:53.985Z,6.70
2023-01-12T21:27:22.815Z,6.60
2023-01-12T21:29:57.790Z,6.40
2023-01-12T21:32:31.930Z,2.10
2023-01-12T21:35:06.561Z,6.20
2023-01-12T21:37:35.253Z,6.00
2023-01-12T21:40:03.494Z,5.90
2023-01-12T21:42:49.652Z,5.80
2023-01-12T21:45:19.703Z,5.70
2023-01-12T21:47:48.122Z,7.70
2023-01-12T21:50:16.844Z,5.60
2023-01-12T21:52:45.872Z,5.50
2023-01-12T21:55:15.361Z,5.50
2023-01-12T21:57:44.873Z,5.50
2023-01-12T22:00:13.932Z,6.00
2023-01-12T22:02:44.174Z,6.50
2023-01-12T22:05:13.812Z,5.30
2023-01-12T22:07:42.358Z,5.30
2023-01-12T22:10:30.675Z,5.40
2023-01-12T22:13:02.434Z,5.30
2023-01-12T22:15:31.435Z,6.10
2023-01-12T22:18:02.094Z,5.20
2023-01-12T22:20:30.348Z,5.20
2023-01-12T22:22:59.284Z,5.10
2023-01-12T22:25:28.472Z,5.20
2023-01-12T22:27:58.338Z,6.60
2023-01-12T22:30:28.200Z,5.10
2023-01-12T22:32:59.353Z,5.10
2023-01-12T22:35:29.697Z,5.10
2023-01-12T22:37:58.632Z,5.10
2023-01-12T22:40:26.929Z,5.20
2023-01-12T22:43:12.545Z,5.70
2023-01-12T22:45:40.930Z,5.10
2023-01-12T22:48:09.521Z,5.10
2023-01-12T22:50:39.284Z,5.10
2023-01-12T22:53:08.362Z,5.20
2023-01-12T22:55:42.482Z,5.10
2023-01-12T22:58:10.753Z,5.20
2023-01-12T23:00:40.058Z,5.10
2023-01-12T23:03:12.470Z,4.80
2023-01-12T23:05:47.750Z,5.20
2023-01-12T23:08:16.932Z,5.40
2023-01-12T23:10:46.067Z,5.50
2023-01-12T23:13:17.139Z,5.60
2023-01-12T23:15:48.668Z,5.80
2023-01-12T23:18:20.752Z,6.00
2023-01-12T23:20:52.916Z,6.30
2023-01-12T23:23:21.241Z,5.70
2023-01-12T23:25:50.495Z,6.20
2023-01-12T23:28:18.720Z,6.40
2023-01-12T23:30:47.205Z,6.60
2023-01-12T23:33:15.353Z,6.90
2023-01-12T23:35:44.095Z,6.90
2023-01-12T23:38:17.344Z,7.00
2023-01-12T23:40:45.538Z,7.10
2023-01-12T23:43:13.651Z,7.20
2023-01-12T23:45:41.795Z,7.50
2023-01-12T23:48:09.897Z,4.20
2023-01-12T23:50:38.325Z,7.10
2023-01-12T23:53:07.449Z,8.10
2023-01-12T23:55:39.280Z,6.20
2023-01-12T23:58:08.210Z,7.90
